Bagan Pulau Ketam, Malaysia

10:14 AM +08 on March 24, 2017 (GMT +0800)
Klang | | Change Station

Elev 20 ft 3.05 °N, 101.45 °E | Updated 25 seconds ago

Mostly Cloudy
Mostly Cloudy
81.9 °F
Feels Like 88 °F
N
4.5
Wind Variable Wind from SSW
Gusts 4.9 mph

Today
High -- | Low -- °F
--% Chance of Precip.
Yesterday
High -- | Low -- °F
Precip. -- in
Pressure 29.89 in
Visibility 2.5 miles
Clouds Few 800 ft
Few 1700 ft
Scattered Clouds 14000 ft
Mostly Cloudy 26000 ft
Heat Index 88 °F
Dew Point 75 °F
Humidity 79%
Rainfall 0.05 in
Snow Depth Not available.
7:17 AM 7:24 PM
Waning Crescent, 19% visible
METAR WMKK 240200Z 27009KT 200V330 4000 -RA FEW008 FEW017CB SCT140 BKN260 25/23 Q1012 TEMPO TL0230 2500 TSRA BECMG FM0315 5000 -TSRA
Pressure 29.89 in
Visibility 2.5 miles
Clouds Few 800 ft
Few 1700 ft
Scattered Clouds 14000 ft
Mostly Cloudy 26000 ft
Heat Index 88 °F
Dew Point 75 °F
Humidity 79%
Rainfall 0.05 in
Snow Depth Not available.
7:17 AM 7:24 PM
Waning Crescent, 19% visible
METAR WMKK 240200Z 27009KT 200V330 4000 -RA FEW008 FEW017CB SCT140 BKN260 25/23 Q1012 TEMPO TL0230 2500 TSRA BECMG FM0315 5000 -TSRA

Get Severe Weather Alerts

Thanks for signing up!

Be on the lookout for a verification email in your inbox.

You'll start receiving the daily forecast at 8 AM.

×

10-Day Weather Forecast

No radar image for this location.
×

Almanac

Astronomy

Mar. 24, 2017 Rise Set
Actual Time
Civil Twilight
Nautical Twilight
Astronomical Twilight
Moon
Length of Visible Light
Length of Day
Tomorrow will be .
, % of the Moon is Illuminated

Today's Extremes

Country Highs Country Lows

Community

WunderPhotos

Upload Photos

1,962,540 photos uploaded!

WunderBlog® & News

Nearby

Air Quality

  Air Quality AQ Index Pollutant
Not available.

Snow Depth

Station Depth Elevation

Earthquake Activity

City Distance Mag. Time & Date
Minimum magnitude displayed is 2.5.

Earthquake Activity

City Distance Mag. Time & Date
Minimum magnitude displayed is 2.5.

Coastal Water Temperatures

Place Temperature

Stations

Nearby Weather Stations

Station Location Temp. Windchill Dew Point Humidity Wind Precip. Elev Updated Type